createdAt,value
2022-08-04T00:00:08.061Z,20.00
2022-08-04T00:02:59.351Z,19.80
2022-08-04T00:05:35.219Z,19.60
2022-08-04T00:08:18.114Z,19.50
2022-08-04T00:10:54.033Z,19.40
2022-08-04T00:13:25.370Z,19.00
2022-08-04T00:15:54.736Z,19.00
2022-08-04T00:18:27.987Z,18.80
2022-08-04T00:21:01.510Z,18.70
2022-08-04T00:24:11.717Z,18.70
2022-08-04T00:26:23.901Z,18.80
2022-08-04T00:28:55.145Z,18.50
2022-08-04T00:31:53.543Z,18.50
2022-08-04T00:34:13.862Z,18.30
2022-08-04T00:36:44.013Z,18.40
2022-08-04T00:39:14.724Z,18.40
2022-08-04T00:42:02.262Z,18.30
2022-08-04T00:44:43.935Z,18.10
2022-08-04T00:47:40.398Z,18.30
2022-08-04T00:50:13.252Z,18.50
2022-08-04T00:52:56.480Z,18.30
2022-08-04T00:55:36.457Z,18.30
2022-08-04T00:58:30.420Z,18.10
2022-08-04T01:01:02.821Z,18.00
2022-08-04T01:03:50.353Z,17.90
2022-08-04T01:06:30.533Z,18.00
2022-08-04T01:09:21.311Z,17.90
2022-08-04T01:12:13.051Z,17.80
2022-08-04T01:14:58.305Z,17.80
2022-08-04T01:17:29.615Z,17.70
2022-08-04T01:20:07.515Z,17.70
2022-08-04T01:23:17.799Z,17.60
2022-08-04T01:26:42.521Z,17.70
2022-08-04T01:29:14.864Z,17.80
2022-08-04T01:31:53.501Z,17.60
2022-08-04T01:34:23.855Z,17.60
2022-08-04T01:37:05.146Z,17.40
2022-08-04T01:39:43.839Z,17.30
2022-08-04T01:42:31.534Z,17.30
2022-08-04T01:45:04.674Z,17.30
2022-08-04T01:47:36.259Z,17.30
2022-08-04T01:50:08.034Z,17.20
2022-08-04T01:52:37.324Z,17.10
2022-08-04T01:55:07.366Z,17.00
2022-08-04T01:57:39.351Z,17.20
2022-08-04T02:00:10.921Z,17.20
2022-08-04T02:02:40.520Z,17.10
2022-08-04T02:05:11.902Z,16.90
2022-08-04T02:07:55.183Z,16.80
2022-08-04T02:10:29.535Z,16.80
2022-08-04T02:13:09.673Z,16.70
2022-08-04T02:15:46.822Z,16.70
2022-08-04T02:18:23.667Z,16.60
2022-08-04T02:20:58.665Z,16.70
2022-08-04T02:23:32.288Z,16.70
2022-08-04T02:26:04.227Z,16.80
2022-08-04T02:28:37.554Z,16.70
2022-08-04T02:31:23.356Z,16.70
2022-08-04T02:34:00.089Z,16.70
2022-08-04T02:36:32.233Z,16.60
2022-08-04T02:39:01.837Z,16.60
2022-08-04T02:41:32.537Z,16.60
2022-08-04T02:44:02.510Z,16.50
2022-08-04T02:46:34.682Z,16.60
2022-08-04T02:49:05.098Z,16.60
2022-08-04T02:51:35.716Z,16.50
2022-08-04T02:54:05.707Z,16.50
2022-08-04T02:56:37.519Z,16.50
2022-08-04T02:59:08.876Z,16.50
2022-08-04T03:01:57.254Z,16.50
2022-08-04T03:04:50.630Z,16.40
2022-08-04T03:07:43.421Z,16.30
2022-08-04T03:10:34.789Z,16.40
2022-08-04T03:13:41.058Z,16.40
2022-08-04T03:16:46.942Z,16.30
2022-08-04T03:19:40.504Z,16.20
2022-08-04T03:23:11.673Z,16.20
2022-08-04T03:26:19.044Z,16.20
2022-08-04T03:29:14.873Z,16.30
2022-08-04T03:32:36.721Z,16.10
2022-08-04T03:35:24.446Z,15.90
2022-08-04T03:38:28.186Z,15.90
2022-08-04T03:41:51.608Z,16.00
2022-08-04T03:44:52.352Z,15.70
2022-08-04T03:47:55.139Z,15.80
2022-08-04T03:51:35.886Z,15.80
2022-08-04T03:54:34.570Z,15.80
2022-08-04T03:57:31.868Z,15.70
2022-08-04T04:00:08.950Z,15.50
2022-08-04T04:03:34.828Z,15.50
2022-08-04T04:06:43.371Z,15.60
2022-08-04T04:10:05.931Z,15.80
2022-08-04T04:13:19.975Z,15.80
2022-08-04T04:16:15.408Z,15.90
2022-08-04T04:19:24.126Z,16.00
2022-08-04T04:22:19.183Z,16.00
2022-08-04T04:24:58.129Z,15.70
2022-08-04T04:27:38.831Z,15.50
2022-08-04T04:30:09.599Z,15.50
2022-08-04T04:32:58.881Z,15.60
2022-08-04T04:35:38.860Z,15.80
2022-08-04T04:38:41.576Z,15.80
2022-08-04T04:41:30.314Z,15.90
2022-08-04T04:44:36.841Z,16.20
2022-08-04T04:47:15.387Z,16.30
2022-08-04T04:49:50.814Z,16.50
2022-08-04T04:52:27.799Z,16.50
2022-08-04T04:55:03.738Z,18.50
2022-08-04T04:57:54.265Z,19.30
2022-08-04T05:00:26.023Z,18.70
2022-08-04T05:03:23.591Z,18.10
2022-08-04T05:06:15.146Z,17.70
2022-08-04T05:09:17.110Z,18.50
2022-08-04T05:14:22.847Z,19.00
2022-08-04T05:15:08.120Z,19.30
2022-08-04T05:17:40.422Z,19.30
2022-08-04T05:20:12.238Z,19.40
2022-08-04T05:22:46.428Z,19.10
2022-08-04T05:25:21.241Z,19.30
2022-08-04T05:27:57.527Z,20.00
2022-08-04T05:30:27.824Z,19.80
2022-08-04T05:33:00.179Z,20.00
2022-08-04T05:39:20.189Z,20.00
2022-08-04T05:41:55.826Z,20.50
2022-08-04T05:44:29.588Z,20.50
2022-08-04T05:46:59.783Z,20.00
2022-08-04T05:49:30.067Z,19.60
2022-08-04T05:52:01.852Z,19.50
2022-08-04T05:54:31.966Z,19.40
2022-08-04T05:57:01.153Z,19.40
2022-08-04T05:59:32.164Z,19.50
2022-08-04T06:02:02.009Z,19.70
2022-08-04T06:04:34.203Z,19.80
2022-08-04T06:07:02.854Z,20.10
2022-08-04T06:09:32.350Z,20.30
2022-08-04T06:12:04.671Z,20.20
2022-08-04T06:14:39.520Z,20.20
2022-08-04T06:18:33.338Z,20.30
2022-08-04T06:20:18.419Z,20.40
2022-08-04T06:22:51.581Z,20.60
2022-08-04T06:25:22.660Z,20.80
2022-08-04T06:27:52.095Z,21.00
2022-08-04T06:30:26.183Z,21.20
2022-08-04T06:33:03.997Z,21.20
2022-08-04T06:35:34.765Z,21.30
2022-08-04T06:38:04.192Z,21.40
2022-08-04T06:40:34.564Z,21.60
2022-08-04T06:43:04.690Z,21.60
2022-08-04T06:45:38.044Z,21.60
2022-08-04T06:48:07.778Z,21.80
2022-08-04T06:51:29.250Z,21.90
2022-08-04T06:53:26.425Z,21.90
2022-08-04T06:55:56.529Z,22.10
2022-08-04T06:58:25.935Z,22.30
2022-08-04T07:01:01.704Z,22.40
2022-08-04T07:03:30.670Z,22.60
2022-08-04T07:05:59.592Z,22.60
2022-08-04T07:08:35.932Z,22.60
2022-08-04T07:11:05.459Z,22.70
2022-08-04T07:13:34.315Z,22.80
2022-08-04T07:16:05.440Z,22.90
2022-08-04T07:18:33.663Z,22.90
2022-08-04T07:21:02.049Z,23.10
2022-08-04T07:23:30.389Z,23.00
2022-08-04T07:26:11.253Z,23.30
2022-08-04T07:28:41.670Z,23.30
2022-08-04T07:31:33.563Z,23.30
2022-08-04T07:34:21.450Z,23.60
2022-08-04T07:36:53.025Z,23.70
2022-08-04T07:39:28.684Z,23.90
2022-08-04T07:42:01.789Z,24.50
2022-08-04T07:44:31.959Z,24.10
2022-08-04T07:47:02.529Z,24.60
2022-08-04T07:49:54.856Z,24.50
2022-08-04T07:52:19.793Z,24.60
2022-08-04T07:54:49.131Z,24.80
2022-08-04T07:57:20.596Z,25.20
2022-08-04T08:00:08.729Z,25.20
2022-08-04T08:02:46.615Z,24.90
2022-08-04T08:05:17.963Z,24.80
2022-08-04T08:07:50.831Z,24.90
2022-08-04T08:10:23.784Z,25.20
2022-08-04T08:12:52.942Z,25.50
2022-08-04T08:15:21.549Z,25.80
2022-08-04T08:17:58.520Z,25.60
2022-08-04T08:20:33.310Z,25.50
2022-08-04T08:23:02.921Z,25.40
2022-08-04T08:25:32.232Z,25.80
2022-08-04T08:28:00.973Z,26.00
2022-08-04T08:30:31.809Z,25.80
2022-08-04T08:33:05.762Z,25.70
2022-08-04T08:35:54.109Z,26.10
2022-08-04T08:38:38.758Z,26.40
2022-08-04T08:41:32.237Z,25.80
2022-08-04T08:44:19.177Z,26.00
2022-08-04T08:47:19.819Z,26.30
2022-08-04T08:50:19.105Z,26.40
2022-08-04T08:53:10.995Z,26.40
2022-08-04T08:55:50.393Z,26.70
2022-08-04T08:58:32.749Z,26.60
2022-08-04T09:01:13.455Z,26.60
2022-08-04T09:04:02.121Z,27.00
2022-08-04T09:06:43.461Z,27.50
2022-08-04T09:09:40.529Z,28.10
2022-08-04T09:12:15.244Z,27.60
2022-08-04T09:14:52.194Z,27.50
2022-08-04T09:17:28.351Z,27.60
2022-08-04T09:20:03.570Z,27.60
2022-08-04T09:22:40.915Z,28.00
2022-08-04T09:25:13.714Z,27.90
2022-08-04T09:27:47.842Z,27.90
2022-08-04T09:30:20.703Z,27.80
2022-08-04T09:32:59.392Z,27.90
2022-08-04T09:35:38.533Z,28.40
2022-08-04T09:38:17.420Z,28.40
2022-08-04T09:40:57.111Z,28.10
2022-08-04T09:44:43.045Z,29.00
2022-08-04T09:46:35.980Z,28.80
2022-08-04T09:49:11.805Z,28.60
2022-08-04T09:51:57.957Z,29.30
2022-08-04T09:54:39.535Z,29.30
2022-08-04T09:57:15.374Z,29.40
2022-08-04T09:59:54.575Z,29.10
2022-08-04T10:02:25.586Z,29.40
2022-08-04T10:04:57.887Z,29.50
2022-08-04T10:08:02.133Z,29.50
2022-08-04T10:10:41.708Z,30.20
2022-08-04T10:13:26.981Z,29.40
2022-08-04T10:16:12.501Z,30.10
2022-08-04T10:18:50.846Z,30.20
2022-08-04T10:21:27.733Z,31.00
2022-08-04T10:24:20.136Z,30.70
2022-08-04T10:26:58.065Z,30.40
2022-08-04T10:29:31.892Z,30.60
2022-08-04T10:32:07.346Z,31.30
2022-08-04T10:34:42.899Z,30.30
2022-08-04T10:37:20.272Z,31.10
2022-08-04T10:40:13.271Z,31.00
2022-08-04T10:42:54.928Z,31.60
2022-08-04T10:45:28.048Z,31.40
2022-08-04T10:48:01.557Z,30.80
2022-08-04T10:50:31.177Z,32.20
2022-08-04T10:53:04.975Z,31.20
2022-08-04T10:56:07.379Z,31.60
2022-08-04T10:58:48.149Z,32.10
2022-08-04T11:02:00.632Z,32.00
2022-08-04T11:04:32.458Z,32.30
2022-08-04T11:07:02.193Z,31.80
2022-08-04T11:09:32.782Z,32.50
2022-08-04T11:12:08.087Z,32.40
2022-08-04T11:14:45.405Z,32.40
2022-08-04T11:17:20.855Z,31.90
2022-08-04T11:20:03.460Z,32.60
2022-08-04T11:22:48.454Z,31.50
2022-08-04T11:25:22.301Z,32.80
2022-08-04T11:28:00.556Z,33.10
2022-08-04T11:30:36.869Z,33.00
2022-08-04T11:33:11.811Z,32.50
2022-08-04T11:35:48.137Z,32.30
2022-08-04T11:38:24.200Z,33.60
2022-08-04T11:41:02.528Z,33.30
2022-08-04T11:44:00.670Z,33.30
2022-08-04T11:46:38.133Z,32.80
2022-08-04T11:49:09.576Z,32.90
2022-08-04T11:51:38.189Z,33.10
2022-08-04T11:54:07.398Z,33.20
2022-08-04T11:56:38.066Z,34.50
2022-08-04T11:59:08.668Z,33.80
2022-08-04T12:01:50.300Z,33.70
2022-08-04T12:04:26.765Z,34.50
2022-08-04T12:07:21.861Z,33.50
2022-08-04T12:09:54.107Z,33.70
2022-08-04T12:12:30.654Z,34.00
2022-08-04T12:15:06.430Z,34.10
2022-08-04T12:17:52.716Z,34.10
2022-08-04T12:20:40.363Z,34.50
2022-08-04T12:23:15.876Z,34.90
2022-08-04T12:25:49.048Z,34.90
2022-08-04T12:28:23.472Z,34.60
2022-08-04T12:31:03.399Z,34.70
2022-08-04T12:34:04.074Z,35.10
2022-08-04T12:36:38.681Z,35.40
2022-08-04T12:39:11.812Z,35.00
2022-08-04T12:41:43.665Z,35.20
2022-08-04T12:44:37.352Z,35.60
2022-08-04T12:47:26.593Z,34.90
2022-08-04T12:50:00.678Z,34.80
2022-08-04T12:55:22.169Z,34.50
2022-08-04T12:57:52.131Z,35.40
2022-08-04T13:00:31.993Z,35.40
2022-08-04T13:03:09.697Z,34.90
2022-08-04T13:05:41.853Z,35.10
2022-08-04T13:08:11.708Z,35.70
2022-08-04T13:10:41.930Z,35.70
2022-08-04T13:13:17.743Z,36.20
2022-08-04T13:15:57.489Z,35.80
2022-08-04T13:18:30.416Z,35.90
2022-08-04T13:21:20.227Z,36.20
2022-08-04T13:24:10.510Z,36.90
2022-08-04T13:26:54.571Z,37.00
2022-08-04T13:30:00.644Z,36.50
2022-08-04T13:32:22.404Z,37.00
2022-08-04T13:34:54.176Z,36.10
2022-08-04T13:37:27.658Z,35.00
2022-08-04T13:39:58.529Z,35.40
2022-08-04T13:42:28.347Z,35.70
2022-08-04T13:45:00.401Z,37.50
2022-08-04T13:47:31.369Z,36.60
2022-08-04T13:50:19.472Z,37.00
2022-08-04T13:52:52.950Z,36.70
2022-08-04T13:55:23.513Z,36.80
2022-08-04T13:57:55.851Z,37.00
2022-08-04T14:00:30.040Z,35.90
2022-08-04T14:03:24.000Z,36.80
2022-08-04T14:06:25.438Z,36.20
2022-08-04T14:08:57.669Z,36.20
2022-08-04T14:12:06.480Z,35.90
2022-08-04T14:14:26.812Z,36.90
2022-08-04T14:17:00.092Z,37.30
2022-08-04T14:19:35.935Z,36.60
2022-08-04T14:22:04.971Z,37.70
2022-08-04T14:24:34.616Z,37.50
2022-08-04T14:27:03.001Z,37.90
2022-08-04T14:29:38.932Z,37.40
2022-08-04T14:32:14.221Z,39.30
2022-08-04T14:34:45.826Z,38.00
2022-08-04T14:37:19.380Z,39.20
2022-08-04T14:40:19.365Z,41.00
2022-08-04T14:42:55.831Z,40.70
2022-08-04T14:45:32.946Z,40.40
2022-08-04T14:48:02.133Z,37.60
2022-08-04T14:50:39.640Z,38.50
2022-08-04T14:53:11.178Z,38.50
2022-08-04T14:55:43.959Z,37.80
2022-08-04T14:58:37.792Z,38.70
2022-08-04T15:01:11.035Z,38.80
2022-08-04T15:03:49.650Z,38.60
2022-08-04T15:06:22.241Z,38.10
2022-08-04T15:08:52.719Z,38.60
2022-08-04T15:11:24.307Z,38.90
2022-08-04T15:13:52.910Z,37.40
2022-08-04T15:16:21.513Z,40.10
2022-08-04T15:18:50.059Z,40.30
2022-08-04T15:21:18.995Z,40.40
2022-08-04T15:23:47.658Z,41.30
2022-08-04T15:26:19.475Z,40.70
2022-08-04T15:28:54.091Z,39.30
2022-08-04T15:32:05.881Z,37.90
2022-08-04T15:34:13.680Z,38.90
2022-08-04T15:36:56.199Z,40.00
2022-08-04T15:39:37.033Z,39.40
2022-08-04T15:42:23.242Z,38.10
2022-08-04T15:45:11.935Z,39.30
2022-08-04T15:47:41.270Z,40.10
2022-08-04T15:50:11.446Z,41.10
2022-08-04T15:53:10.081Z,39.10
2022-08-04T15:55:43.163Z,40.10
2022-08-04T15:58:13.645Z,39.50
2022-08-04T16:01:17.889Z,38.80
2022-08-04T16:03:58.391Z,39.60
2022-08-04T16:06:45.688Z,39.90
2022-08-04T16:09:45.396Z,39.90
2022-08-04T16:12:55.594Z,40.30
2022-08-04T16:15:44.801Z,39.70
2022-08-04T16:18:26.080Z,39.10
2022-08-04T16:21:00.678Z,40.00
2022-08-04T16:24:02.181Z,39.40
2022-08-04T16:26:56.391Z,42.00
2022-08-04T16:29:29.369Z,42.10
2022-08-04T16:32:22.199Z,41.20
2022-08-04T16:34:56.957Z,39.50
2022-08-04T16:37:30.509Z,40.80
2022-08-04T16:40:33.767Z,39.70
2022-08-04T16:43:05.127Z,37.40
2022-08-04T16:45:48.055Z,37.70
2022-08-04T16:48:17.929Z,39.70
2022-08-04T16:50:57.098Z,39.80
2022-08-04T16:54:03.146Z,40.70
2022-08-04T16:56:18.819Z,41.40
2022-08-04T16:58:50.295Z,41.30
2022-08-04T17:01:33.750Z,42.20
2022-08-04T17:04:06.101Z,41.00
2022-08-04T17:06:42.329Z,41.70
2022-08-04T17:09:12.802Z,42.10
2022-08-04T17:11:42.204Z,41.70
2022-08-04T17:14:10.931Z,40.20
2022-08-04T17:16:41.871Z,39.60
2022-08-04T17:19:24.407Z,40.80
2022-08-04T17:22:04.120Z,40.40
2022-08-04T17:27:04.340Z,40.10
2022-08-04T17:29:44.180Z,40.30
2022-08-04T17:32:18.006Z,40.20
2022-08-04T17:34:49.684Z,40.60
2022-08-04T17:37:40.182Z,39.50
2022-08-04T17:40:14.045Z,39.70
2022-08-04T17:42:45.227Z,38.90
2022-08-04T17:45:52.810Z,39.10
2022-08-04T17:48:09.854Z,39.50
2022-08-04T17:50:43.562Z,39.10
2022-08-04T17:53:13.702Z,39.40
2022-08-04T17:55:43.276Z,38.90
2022-08-04T17:58:21.551Z,39.10
2022-08-04T18:01:10.597Z,38.60
2022-08-04T18:03:51.806Z,38.60
2022-08-04T18:06:22.575Z,38.20
2022-08-04T18:08:58.663Z,37.60
2022-08-04T18:11:28.621Z,37.20
2022-08-04T18:13:58.129Z,36.80
2022-08-04T18:16:27.391Z,36.30
2022-08-04T18:19:11.668Z,35.60
2022-08-04T18:21:46.359Z,35.10
2022-08-04T18:24:36.009Z,34.90
2022-08-04T18:27:22.264Z,33.70
2022-08-04T18:30:33.685Z,33.40
2022-08-04T18:33:04.367Z,33.60
2022-08-04T18:36:31.373Z,32.80
2022-08-04T18:38:22.633Z,32.20
2022-08-04T18:40:54.738Z,31.90
2022-08-04T18:43:28.222Z,32.50
2022-08-04T18:45:59.589Z,31.50
2022-08-04T18:48:35.884Z,31.50
2022-08-04T18:51:22.695Z,31.00
2022-08-04T18:53:55.244Z,31.20
2022-08-04T18:56:32.580Z,31.00
2022-08-04T18:59:03.103Z,30.60
2022-08-04T19:02:09.299Z,30.00
2022-08-04T19:04:34.041Z,29.70
2022-08-04T19:07:29.506Z,29.80
2022-08-04T19:09:58.072Z,29.90
2022-08-04T19:12:29.463Z,29.60
2022-08-04T19:15:08.544Z,29.50
2022-08-04T19:17:53.399Z,29.10
2022-08-04T19:20:26.773Z,29.10
2022-08-04T19:24:11.101Z,29.00
2022-08-04T19:26:02.581Z,28.70
2022-08-04T19:28:36.063Z,28.60
2022-08-04T19:31:06.086Z,28.60
2022-08-04T19:36:28.516Z,28.20
2022-08-04T19:38:58.655Z,27.90
2022-08-04T19:41:27.207Z,27.70
2022-08-04T19:43:57.307Z,27.60
2022-08-04T19:46:27.901Z,27.80
2022-08-04T19:48:59.778Z,27.70
2022-08-04T19:51:29.760Z,27.70
2022-08-04T19:54:02.481Z,27.50
2022-08-04T19:56:40.883Z,27.30
2022-08-04T19:59:11.245Z,27.30
2022-08-04T20:01:45.402Z,27.30
2022-08-04T20:04:14.601Z,27.20
2022-08-04T20:06:43.588Z,27.10
2022-08-04T20:09:24.505Z,27.00
2022-08-04T20:11:55.037Z,26.90
2022-08-04T20:14:32.248Z,26.80
2022-08-04T20:17:02.908Z,26.70
2022-08-04T20:19:31.261Z,26.50
2022-08-04T20:21:59.955Z,26.40
2022-08-04T20:24:39.943Z,26.30
2022-08-04T20:27:15.645Z,26.20
2022-08-04T20:29:49.161Z,26.00
2022-08-04T20:32:22.624Z,26.00
2022-08-04T20:34:52.063Z,25.80
2022-08-04T20:37:23.053Z,25.80
2022-08-04T20:39:55.858Z,25.70
2022-08-04T20:42:27.659Z,25.70
2022-08-04T20:45:04.034Z,25.60
2022-08-04T20:47:35.731Z,25.50
2022-08-04T20:50:05.698Z,25.50
2022-08-04T20:52:37.997Z,25.40
2022-08-04T20:55:07.505Z,25.40
2022-08-04T20:57:48.246Z,25.30
2022-08-04T21:00:26.393Z,25.20
2022-08-04T21:02:58.530Z,25.10
2022-08-04T21:05:27.025Z,25.00
2022-08-04T21:07:56.955Z,24.90
2022-08-04T21:10:25.685Z,25.00
2022-08-04T21:12:54.197Z,24.90
2022-08-04T21:18:13.786Z,24.80
2022-08-04T21:20:43.335Z,24.90
2022-08-04T21:23:11.772Z,25.10
2022-08-04T21:25:42.753Z,24.90
2022-08-04T21:28:11.948Z,24.90
2022-08-04T21:30:54.171Z,25.00
2022-08-04T21:33:28.225Z,24.80
2022-08-04T21:36:14.226Z,24.70
2022-08-04T21:38:51.571Z,24.40
2022-08-04T21:41:25.046Z,24.40
2022-08-04T21:43:56.376Z,24.50
2022-08-04T21:46:30.201Z,24.60
2022-08-04T21:48:59.731Z,24.70
2022-08-04T21:52:00.705Z,24.70
2022-08-04T21:54:17.889Z,25.10
2022-08-04T21:59:34.726Z,25.10
2022-08-04T22:02:14.924Z,24.90
2022-08-04T22:04:44.286Z,24.70
2022-08-04T22:07:12.471Z,24.60
2022-08-04T22:10:00.244Z,24.50
2022-08-04T22:12:30.574Z,24.40
2022-08-04T22:15:22.854Z,24.60
2022-08-04T22:17:54.245Z,24.40
2022-08-04T22:20:28.144Z,24.40
2022-08-04T22:23:03.358Z,24.40
2022-08-04T22:25:37.657Z,24.20
2022-08-04T22:28:07.905Z,24.10
2022-08-04T22:30:37.998Z,23.90
2022-08-04T22:33:10.439Z,23.70
2022-08-04T22:35:44.050Z,23.60
2022-08-04T22:38:24.018Z,23.50
2022-08-04T22:41:01.826Z,23.40
2022-08-04T22:43:32.602Z,23.20
2022-08-04T22:46:03.833Z,23.20
2022-08-04T22:48:35.695Z,23.10
2022-08-04T22:51:04.996Z,23.10
2022-08-04T22:53:34.247Z,23.00
2022-08-04T22:56:10.201Z,22.90
2022-08-04T22:58:45.538Z,22.70
2022-08-04T23:01:15.394Z,22.70
2022-08-04T23:03:50.975Z,22.70
2022-08-04T23:06:28.475Z,22.50
2022-08-04T23:08:57.697Z,22.40
2022-08-04T23:11:35.132Z,22.40
2022-08-04T23:14:05.152Z,22.30
2022-08-04T23:16:33.283Z,22.20
2022-08-04T23:19:12.164Z,22.10
2022-08-04T23:21:47.982Z,22.00
2022-08-04T23:24:29.496Z,22.00
2022-08-04T23:26:58.265Z,22.00
2022-08-04T23:29:26.329Z,21.80
2022-08-04T23:32:00.272Z,21.80
2022-08-04T23:34:30.380Z,21.80
2022-08-04T23:37:06.151Z,21.70
2022-08-04T23:40:03.833Z,21.70
2022-08-04T23:42:26.376Z,21.60
2022-08-04T23:44:54.913Z,21.50
2022-08-04T23:48:15.193Z,21.50
2022-08-04T23:50:12.790Z,21.40
2022-08-04T23:52:40.909Z,21.50
2022-08-04T23:55:15.774Z,21.50
2022-08-04T23:58:05.269Z,21.50
